createdAt,value
2019-06-27T00:02:38.999Z,52.4
2019-06-27T00:07:41.390Z,52.5
2019-06-27T00:12:43.844Z,53
2019-06-27T00:17:46.283Z,53.2
2019-06-27T00:22:48.743Z,53.4
2019-06-27T00:27:51.221Z,53.9
2019-06-27T00:32:53.704Z,54
2019-06-27T00:37:56.203Z,54.3
2019-06-27T00:42:58.518Z,54.5
2019-06-27T00:48:01.035Z,54.6
2019-06-27T00:53:03.363Z,54.9
2019-06-27T01:03:08.282Z,55.2
2019-06-27T01:08:10.723Z,55.7
2019-06-27T01:13:13.142Z,56
2019-06-27T01:18:15.621Z,56.4
2019-06-27T01:23:18.035Z,56.7
2019-06-27T01:28:20.590Z,56.9
2019-06-27T01:33:22.932Z,57.1
2019-06-27T01:38:25.359Z,57.4
2019-06-27T01:43:27.786Z,57.6
2019-06-27T01:48:30.494Z,58.1
2019-06-27T01:53:32.655Z,58.2
2019-06-27T01:58:35.202Z,58.5
2019-06-27T02:03:37.547Z,58.8
2019-06-27T02:08:40.033Z,59.1
2019-06-27T02:13:42.438Z,59.4
2019-06-27T02:23:47.333Z,60.2
2019-06-27T02:28:49.885Z,60.4
2019-06-27T02:33:52.208Z,60.4
2019-06-27T02:38:54.820Z,60.5
2019-06-27T02:43:57.173Z,60.7
2019-06-27T02:49:00.144Z,61
2019-06-27T02:54:02.037Z,61
2019-06-27T02:59:04.404Z,61
2019-06-27T03:04:06.864Z,61.2
2019-06-27T03:09:09.540Z,61.2
2019-06-27T03:14:11.755Z,61.1
2019-06-27T03:19:14.325Z,61.2
2019-06-27T03:24:16.622Z,61.4
2019-06-27T03:29:20.477Z,61.4
2019-06-27T03:34:21.744Z,61.4
2019-06-27T03:39:23.956Z,61.4
2019-06-27T03:44:26.395Z,61.4
2019-06-27T03:49:28.833Z,61.5
2019-06-27T03:54:31.263Z,61.8
2019-06-27T03:59:33.761Z,63.2
2019-06-27T04:04:36.172Z,63.5
2019-06-27T04:09:38.588Z,63.4
2019-06-27T04:14:41.040Z,63.3
2019-06-27T04:19:43.506Z,63.1
2019-06-27T04:24:45.916Z,63
2019-06-27T04:29:48.398Z,62.9
2019-06-27T04:34:50.817Z,63.2
2019-06-27T04:39:53.472Z,63.2
2019-06-27T04:44:55.684Z,62.9
2019-06-27T04:49:58.212Z,63
2019-06-27T04:55:03.236Z,62.6
2019-06-27T05:00:03.031Z,62.6
2019-06-27T05:05:05.489Z,62.6
2019-06-27T05:10:07.898Z,62
2019-06-27T05:20:12.783Z,62.1
2019-06-27T05:25:15.230Z,62.4
2019-06-27T05:30:17.699Z,62.9
2019-06-27T05:40:22.554Z,63.3
2019-06-27T05:45:25.004Z,63.8
2019-06-27T05:50:27.595Z,63
2019-06-27T05:55:30.054Z,63.3
2019-06-27T06:00:32.313Z,63
2019-06-27T06:05:34.833Z,62.7
2019-06-27T06:10:37.185Z,62.9
2019-06-27T06:15:39.690Z,62.8
2019-06-27T06:20:42.135Z,63
2019-06-27T06:25:44.574Z,62.6
2019-06-27T06:30:46.985Z,62.6
2019-06-27T06:35:49.416Z,62.7
2019-06-27T06:40:51.853Z,62.3
2019-06-27T06:45:54.300Z,62.4
2019-06-27T06:50:56.727Z,62.5
2019-06-27T06:55:59.260Z,62.5
2019-06-27T07:01:02.614Z,62.4
2019-06-27T07:06:04.062Z,62.9
2019-06-27T07:11:06.520Z,62.6
2019-06-27T07:16:08.934Z,63.1
2019-06-27T07:21:11.367Z,61.8
2019-06-27T07:26:13.822Z,60.6
2019-06-27T07:31:17.967Z,60.8
2019-06-27T07:36:18.786Z,60.7
2019-06-27T07:41:21.196Z,60.2
2019-06-27T07:51:26.025Z,60.5
2019-06-27T07:56:28.507Z,60.8
2019-06-27T08:01:35.292Z,60.8
2019-06-27T08:06:33.390Z,59.7
2019-06-27T08:11:35.781Z,59.3
2019-06-27T08:16:38.377Z,58.9
2019-06-27T08:21:40.688Z,57.7
2019-06-27T08:26:44.657Z,55.3
2019-06-27T08:36:48.018Z,53.8
2019-06-27T08:46:52.881Z,53.7
2019-06-27T08:51:55.350Z,53.9
2019-06-27T08:56:57.753Z,54
2019-06-27T09:02:08.258Z,53.5
2019-06-27T09:07:02.649Z,52.9
2019-06-27T09:12:05.166Z,52.9
2019-06-27T09:17:07.715Z,52.6
2019-06-27T09:22:10.029Z,51.3
2019-06-27T09:27:12.457Z,51.8
2019-06-27T09:32:24.603Z,51.4
2019-06-27T09:37:17.355Z,51
2019-06-27T09:42:19.806Z,50.6
2019-06-27T09:47:22.175Z,49.5
2019-06-27T09:52:24.887Z,49.5
2019-06-27T09:57:27.069Z,44.1
2019-06-27T10:02:40.778Z,41.7
2019-06-27T10:07:32.011Z,42.7
2019-06-27T10:12:42.084Z,40.5
2019-06-27T10:17:37.030Z,41.1
2019-06-27T10:22:39.298Z,39.1
2019-06-27T10:27:41.774Z,39.6
2019-06-27T10:37:46.623Z,40.3
2019-06-27T10:42:49.096Z,40.4
2019-06-27T10:47:51.632Z,39.7
2019-06-27T10:52:54.177Z,37.9
2019-06-27T10:57:56.357Z,37.9
2019-06-27T11:08:01.344Z,37.9
2019-06-27T11:13:03.770Z,36.4
2019-06-27T11:18:06.195Z,36.6
2019-06-27T11:23:08.611Z,37.2
2019-06-27T11:28:11.027Z,38
2019-06-27T11:33:13.485Z,38.7
2019-06-27T11:38:15.938Z,37.2
2019-06-27T11:43:18.366Z,37.2
2019-06-27T11:48:20.787Z,36.1
2019-06-27T11:53:23.248Z,29.8
2019-06-27T11:58:25.785Z,30.2
2019-06-27T12:03:28.128Z,31
2019-06-27T12:08:30.599Z,30.9
2019-06-27T12:13:32.997Z,31.6
2019-06-27T12:18:35.864Z,32.7
2019-06-27T12:23:37.953Z,32.1
2019-06-27T12:28:40.310Z,28.3
2019-06-27T12:33:42.759Z,30.2
2019-06-27T12:38:45.231Z,29
2019-06-27T12:43:47.795Z,30
2019-06-27T12:48:50.144Z,30.3
2019-06-27T12:53:55.631Z,30.1
2019-06-27T12:58:54.975Z,30
2019-06-27T13:03:57.454Z,29.9
2019-06-27T13:08:59.856Z,30.4
2019-06-27T13:14:02.308Z,30
2019-06-27T13:19:04.860Z,29.8
2019-06-27T13:24:07.267Z,29.5
2019-06-27T13:29:09.655Z,27.4
2019-06-27T13:34:12.177Z,25.3
2019-06-27T13:39:14.537Z,25.2
2019-06-27T13:44:16.956Z,26.8
2019-06-27T13:49:19.413Z,27.3
2019-06-27T13:59:24.516Z,25.8
2019-06-27T14:04:26.695Z,25.4
2019-06-27T14:09:29.255Z,25.9
2019-06-27T14:14:31.696Z,25.6
2019-06-27T14:19:34.515Z,26.5
2019-06-27T14:24:36.560Z,25.1
2019-06-27T14:29:39.034Z,26.6
2019-06-27T14:34:41.601Z,26.7
2019-06-27T14:39:43.875Z,25.3
2019-06-27T14:44:46.246Z,25
2019-06-27T14:49:48.741Z,25.5
2019-06-27T14:54:51.169Z,24.4
2019-06-27T14:59:53.720Z,23.6
2019-06-27T15:04:56.012Z,23.6
2019-06-27T15:09:58.572Z,23.1
2019-06-27T15:15:00.966Z,23.4
2019-06-27T15:20:03.343Z,23.6
2019-06-27T15:25:05.817Z,22.7
2019-06-27T15:30:08.227Z,23
2019-06-27T15:35:10.891Z,22.6
2019-06-27T15:40:13.117Z,23.3
2019-06-27T15:45:15.583Z,22.7
2019-06-27T15:50:18.019Z,22
2019-06-27T15:55:20.555Z,21.2
2019-06-27T16:00:22.875Z,21.3
2019-06-27T16:05:25.381Z,21.6
2019-06-27T16:10:27.804Z,21.5
2019-06-27T16:15:30.263Z,21.4
2019-06-27T16:20:32.739Z,22.5
2019-06-27T16:25:35.088Z,23.2
2019-06-27T16:30:37.617Z,22.8
2019-06-27T16:35:39.961Z,22.7
2019-06-27T16:40:42.488Z,24.5
2019-06-27T16:45:45.010Z,25.4
2019-06-27T16:50:47.303Z,26.4
2019-06-27T16:55:49.862Z,27
2019-06-27T17:00:52.328Z,27.4
2019-06-27T17:05:54.783Z,27.6
2019-06-27T17:10:58.734Z,28.1
2019-06-27T17:15:59.593Z,28.8
2019-06-27T17:21:01.966Z,28.5
2019-06-27T17:26:11.092Z,29.5
2019-06-27T17:31:06.995Z,30.1
2019-06-27T17:36:09.280Z,30.6
2019-06-27T17:41:11.705Z,31.1
2019-06-27T17:46:14.216Z,31.5
2019-06-27T17:51:16.603Z,32
2019-06-27T17:56:19.222Z,32.2
2019-06-27T18:01:21.544Z,32.5
2019-06-27T18:06:24.078Z,31.9
2019-06-27T18:11:26.371Z,31.5
2019-06-27T18:16:28.832Z,31.8
2019-06-27T18:21:31.283Z,31.9
2019-06-27T18:26:33.741Z,32.2
2019-06-27T18:31:36.140Z,32.4
2019-06-27T18:36:38.573Z,32.4
2019-06-27T18:41:41.076Z,32.5
2019-06-27T18:46:43.529Z,32.5
2019-06-27T18:51:45.914Z,32.7
2019-06-27T18:56:48.351Z,33.4
2019-06-27T19:01:50.814Z,34.1
2019-06-27T19:06:53.216Z,34.6
2019-06-27T19:11:55.676Z,34.9
2019-06-27T19:16:58.151Z,35.5
2019-06-27T19:22:00.551Z,36
2019-06-27T19:27:02.984Z,36.5
2019-06-27T19:32:05.456Z,37
2019-06-27T19:37:07.960Z,37.5
2019-06-27T19:42:10.332Z,37.9
2019-06-27T19:47:12.766Z,38.3
2019-06-27T19:52:15.344Z,38.6
2019-06-27T19:57:17.651Z,39
2019-06-27T20:02:20.140Z,39.6
2019-06-27T20:07:22.544Z,39.9
2019-06-27T20:12:24.965Z,40.2
2019-06-27T20:17:27.749Z,40.3
2019-06-27T20:22:29.942Z,40.7
2019-06-27T20:27:32.473Z,41
2019-06-27T20:32:34.805Z,41.4
2019-06-27T20:37:37.279Z,41.7
2019-06-27T20:42:39.737Z,42.2
2019-06-27T20:47:42.059Z,42.7
2019-06-27T20:52:44.739Z,43.4
2019-06-27T20:57:46.941Z,44.1
2019-06-27T21:02:49.439Z,44.6
2019-06-27T21:07:51.889Z,45
2019-06-27T21:12:54.489Z,45.1
2019-06-27T21:17:56.726Z,45.6
2019-06-27T21:22:59.412Z,46.1
2019-06-27T21:28:01.619Z,46.3
2019-06-27T21:33:04.129Z,46.4
2019-06-27T21:38:06.751Z,46.7
2019-06-27T21:43:08.900Z,47.2
2019-06-27T21:48:11.448Z,47.3
2019-06-27T21:53:13.791Z,47.5
2019-06-27T21:58:16.245Z,47.7
2019-06-27T22:03:18.737Z,48.5
2019-06-27T22:08:21.126Z,48.6
2019-06-27T22:13:23.613Z,49
2019-06-27T22:18:26.103Z,49.3
2019-06-27T22:23:28.430Z,49.3
2019-06-27T22:28:30.875Z,49.5
2019-06-27T22:33:33.316Z,50.1
2019-06-27T22:38:35.784Z,50.2
2019-06-27T22:43:38.255Z,50.6
2019-06-27T22:48:40.760Z,50.9
2019-06-27T22:53:43.090Z,51.2
2019-06-27T22:58:45.602Z,51.3
2019-06-27T23:03:47.985Z,51.4
2019-06-27T23:08:50.415Z,51.7
2019-06-27T23:13:52.867Z,52.2
2019-06-27T23:18:55.380Z,52.4
2019-06-27T23:23:57.741Z,52.5
2019-06-27T23:29:00.169Z,52.9
2019-06-27T23:34:02.813Z,53.1
2019-06-27T23:39:05.185Z,53.1
2019-06-27T23:44:07.513Z,53.4
2019-06-27T23:54:12.375Z,54.1
2019-06-27T23:59:14.808Z,54.5
